Página principal
METAR-TAF:

METAR-TAF

Aeroportos :

Cambridge, Inglaterra

latitude: 52-12N, longitude: 000-11E, altura: 15 m

Observação actual do tempo

O boletim foi feito há 43 minutos, às 10:50 UTC
Vento 3 kt com direcção variável
Temperatura 6°C
Humidade 81%
Pressão 1027 hPa
Visibilidade 10 km ou mais
Nuvens fragmentadasa uma altura de 3700 ft

METAR: EGSC 031050Z VRB03KT 9999 BKN037 06/03 Q1027

Hora: 11:33 (11:33 UTC)

Previsão

O boletim foi feito há 3 horas e 39 minutos, às 07:54 UTC
Previsão válida de 03 às 09 UTC a 03 às 18 UTC
Vento 3 kt de nordeste
Visibilidade 10 km ou mais
Nuvens dispersasa uma altura de 3500 ft

TAF: EGSC 030754Z 0309/0318 04003KT 9999 SCT035

Observações e previsões do tempo de mais de 4000 aeroportos (mensagens METAR e TAF).

As estações disponíveis são os pontos amarelos e vermelhos sobre o mapa.

Mova o rato sobre o mapa para ver o nome da estação.

Depois clique no ponto para visualizar as observações e previsões meteorológicas.

Para alterar o mapa : clique nos botões verdes com uma cruz preta para aumentar o zoom; no botão verde com uma pitada de zoom; ou nas setas verdes para mapas adjacentes.


METAR-TAF: